createdAt,value
2023-01-17T00:00:56.781Z,93694.50
2023-01-17T00:03:53.794Z,93686.19
2023-01-17T00:06:54.521Z,93687.34
2023-01-17T00:09:57.029Z,93666.44
2023-01-17T00:12:40.166Z,93702.81
2023-01-17T00:15:27.835Z,93659.06
2023-01-17T00:18:10.922Z,93663.78
2023-01-17T00:21:11.243Z,93675.81
2023-01-17T00:24:16.874Z,93674.66
2023-01-17T00:27:13.827Z,93680.66
2023-01-17T00:29:55.902Z,93666.44
2023-01-17T00:32:41.789Z,93681.75
2023-01-17T00:35:25.068Z,93664.28
2023-01-17T00:38:09.746Z,93664.66
2023-01-17T00:40:52.104Z,93670.22
2023-01-17T00:43:52.933Z,93675.56
2023-01-17T00:46:53.456Z,93662.97
2023-01-17T00:49:55.673Z,93666.06
2023-01-17T00:52:58.966Z,93657.88
2023-01-17T00:55:59.019Z,93668.31
2023-01-17T00:59:01.903Z,93655.38
2023-01-17T01:02:02.654Z,93678.22
2023-01-17T01:05:04.684Z,93658.16
2023-01-17T01:08:05.257Z,93670.38
2023-01-17T01:11:07.142Z,93692.94
2023-01-17T01:14:07.524Z,93702.50
2023-01-17T01:17:07.849Z,93702.38
2023-01-17T01:20:10.783Z,93682.03
2023-01-17T01:23:11.453Z,93715.66
2023-01-17T01:26:12.379Z,93656.22
2023-01-17T01:29:13.065Z,93673.00
2023-01-17T01:32:13.535Z,93686.53
2023-01-17T01:34:58.189Z,93681.22
2023-01-17T01:37:41.277Z,93638.19
2023-01-17T01:40:24.671Z,93676.66
2023-01-17T01:43:07.762Z,93615.81
2023-01-17T01:45:54.890Z,93615.09
2023-01-17T01:48:45.551Z,93618.00
2023-01-17T01:51:35.976Z,93616.88
2023-01-17T01:54:22.418Z,93656.44
2023-01-17T01:57:08.375Z,93596.94
2023-01-17T01:59:57.433Z,93634.88
2023-01-17T02:02:42.535Z,93618.25
2023-01-17T02:05:28.474Z,93591.59
2023-01-17T02:08:19.266Z,93612.78
2023-01-17T02:11:03.382Z,93601.38
2023-01-17T02:13:46.563Z,93621.66
2023-01-17T02:16:50.072Z,93604.25
2023-01-17T02:20:09.903Z,93628.97
2023-01-17T02:23:23.667Z,93611.97
2023-01-17T02:26:35.676Z,93599.97
2023-01-17T02:29:54.696Z,93592.41
2023-01-17T02:32:49.321Z,93607.97
2023-01-17T02:35:39.991Z,93598.03
2023-01-17T02:38:35.314Z,93582.19
2023-01-17T02:41:23.251Z,93572.06
2023-01-17T02:44:09.204Z,93597.69
2023-01-17T02:46:54.930Z,93604.31
2023-01-17T02:49:39.397Z,93621.53
2023-01-17T02:52:38.741Z,93580.69
2023-01-17T02:55:29.275Z,93575.41
2023-01-17T02:58:33.939Z,93572.53
2023-01-17T03:01:26.656Z,93583.69
2023-01-17T03:04:18.724Z,93578.34
2023-01-17T03:07:07.357Z,93556.81
2023-01-17T03:09:54.633Z,93574.97
2023-01-17T03:12:39.597Z,93573.88
2023-01-17T03:15:22.733Z,93547.19
2023-01-17T03:18:11.757Z,93535.47
2023-01-17T03:20:54.856Z,93551.59
2023-01-17T03:23:39.562Z,93547.22
2023-01-17T03:26:24.711Z,93568.03
2023-01-17T03:29:07.969Z,93546.53
2023-01-17T03:31:51.093Z,93558.94
2023-01-17T03:34:34.211Z,93549.72
2023-01-17T03:37:17.376Z,93549.13
2023-01-17T03:40:01.895Z,93550.81
2023-01-17T03:42:45.256Z,93573.84
2023-01-17T03:45:28.347Z,93576.31
2023-01-17T03:48:11.892Z,93563.03
2023-01-17T03:50:54.973Z,93577.81
2023-01-17T03:53:38.095Z,93584.72
2023-01-17T03:56:27.195Z,93586.56
2023-01-17T03:59:13.089Z,93593.09
2023-01-17T04:01:58.692Z,93576.88
2023-01-17T04:04:41.900Z,93579.59
2023-01-17T04:07:25.090Z,93552.63
2023-01-17T04:10:08.880Z,93577.34
2023-01-17T04:12:53.607Z,93585.66
2023-01-17T04:15:36.864Z,93573.75
2023-01-17T04:18:23.136Z,93601.47
2023-01-17T04:21:07.834Z,93584.41
2023-01-17T04:23:51.068Z,93604.78
2023-01-17T04:26:34.173Z,93612.97
2023-01-17T04:29:21.451Z,93611.53
2023-01-17T04:32:06.949Z,93608.25
2023-01-17T04:34:50.070Z,93578.50
2023-01-17T04:37:33.066Z,93590.28
2023-01-17T04:40:19.484Z,93618.03
2023-01-17T04:43:02.528Z,93588.47
2023-01-17T04:45:47.020Z,93621.94
2023-01-17T04:48:31.502Z,93604.47
2023-01-17T04:51:15.764Z,93634.94
2023-01-17T04:53:58.848Z,93599.59
2023-01-17T04:56:41.959Z,93630.59
2023-01-17T04:59:25.050Z,93613.16
2023-01-17T05:02:10.909Z,93636.09
2023-01-17T05:04:54.063Z,93655.47
2023-01-17T05:07:37.169Z,93672.28
2023-01-17T05:10:22.973Z,93636.41
2023-01-17T05:13:06.512Z,93643.34
2023-01-17T05:15:49.703Z,93647.44
2023-01-17T05:18:34.303Z,93646.28
2023-01-17T05:21:17.358Z,93637.25
2023-01-17T05:24:00.678Z,93657.41
2023-01-17T05:26:46.255Z,93656.28
2023-01-17T05:29:29.405Z,93645.75
2023-01-17T05:32:16.796Z,93627.19
2023-01-17T05:35:03.522Z,93633.41
2023-01-17T05:37:49.224Z,93633.00
2023-01-17T05:40:34.246Z,93648.78
2023-01-17T05:43:17.484Z,93639.38
2023-01-17T05:46:00.699Z,93629.94
2023-01-17T05:48:43.821Z,93643.81
2023-01-17T05:51:30.946Z,93622.56
2023-01-17T05:54:14.110Z,93626.94
2023-01-17T05:56:57.155Z,93612.28
2023-01-17T05:59:42.555Z,93602.28
2023-01-17T06:02:25.744Z,93554.50
2023-01-17T06:05:09.461Z,93566.13
2023-01-17T06:07:56.611Z,93572.06
2023-01-17T06:10:39.902Z,93571.38
2023-01-17T06:13:23.268Z,93554.22
2023-01-17T06:16:06.658Z,93565.53
2023-01-17T06:18:52.423Z,93586.34
2023-01-17T06:21:44.164Z,93572.16
2023-01-17T06:24:30.484Z,93573.38
2023-01-17T06:27:13.639Z,93552.84
2023-01-17T06:29:56.738Z,93546.91
2023-01-17T06:32:42.243Z,93550.31
2023-01-17T06:35:25.615Z,93552.13
2023-01-17T06:38:10.074Z,93567.22
2023-01-17T06:40:55.071Z,93573.66
2023-01-17T06:43:40.861Z,93587.22
2023-01-17T06:46:26.676Z,93604.69
2023-01-17T06:49:09.784Z,93601.41
2023-01-17T06:51:52.880Z,93596.00
2023-01-17T06:54:36.008Z,93597.00
2023-01-17T06:57:20.521Z,93604.63
2023-01-17T07:00:04.549Z,93624.03
2023-01-17T07:02:50.271Z,93634.50
2023-01-17T07:05:33.353Z,93629.47
2023-01-17T07:08:17.176Z,93630.63
2023-01-17T07:11:01.605Z,93630.63
2023-01-17T07:13:46.074Z,93612.81
2023-01-17T07:16:29.789Z,93614.59
2023-01-17T07:19:13.379Z,93621.63
2023-01-17T07:21:56.745Z,93621.44
2023-01-17T07:24:42.468Z,93605.34
2023-01-17T07:27:27.220Z,93627.72
2023-01-17T07:30:14.360Z,93638.72
2023-01-17T07:32:57.817Z,93629.59
2023-01-17T07:35:41.529Z,93640.31
2023-01-17T07:38:24.805Z,93649.72
2023-01-17T07:41:09.863Z,93623.75
2023-01-17T07:43:56.373Z,93628.84
2023-01-17T07:46:41.581Z,93647.50
2023-01-17T07:49:26.700Z,93646.97
2023-01-17T07:52:09.917Z,93632.88
2023-01-17T07:54:54.150Z,93627.28
2023-01-17T07:57:37.274Z,93627.09
2023-01-17T08:00:23.179Z,93630.78
2023-01-17T08:03:07.743Z,93630.16
2023-01-17T08:05:56.333Z,93614.38
2023-01-17T08:08:39.396Z,93627.41
2023-01-17T08:11:22.546Z,93635.00
2023-01-17T08:14:08.213Z,93648.28
2023-01-17T08:16:51.300Z,93637.13
2023-01-17T08:19:35.836Z,93639.97
2023-01-17T08:22:19.038Z,93650.88
2023-01-17T08:25:02.092Z,93670.56
2023-01-17T08:27:45.294Z,93654.59
2023-01-17T08:30:28.897Z,93648.34
2023-01-17T08:33:12.079Z,93643.34
2023-01-17T08:35:56.642Z,93649.16
2023-01-17T08:38:39.819Z,93679.34
2023-01-17T08:41:23.804Z,93702.75
2023-01-17T08:44:07.513Z,93673.88
2023-01-17T08:46:51.013Z,93668.34
2023-01-17T08:49:34.148Z,93688.38
2023-01-17T08:52:18.665Z,93683.78
2023-01-17T08:55:04.375Z,93664.13
2023-01-17T08:57:47.910Z,93667.28
2023-01-17T09:00:33.959Z,93655.84
2023-01-17T09:03:19.804Z,93648.31
2023-01-17T09:06:04.507Z,93638.22
2023-01-17T09:08:49.819Z,93655.13
2023-01-17T09:11:33.226Z,93653.63
2023-01-17T09:14:17.030Z,93651.53
2023-01-17T09:17:02.539Z,93658.25
2023-01-17T09:19:47.671Z,93669.13
2023-01-17T09:22:30.789Z,93663.13
2023-01-17T09:25:17.363Z,93663.34
2023-01-17T09:28:00.501Z,93660.16
2023-01-17T09:30:48.703Z,93671.03
2023-01-17T09:33:31.902Z,93645.69
2023-01-17T09:36:15.266Z,93633.72
2023-01-17T09:39:01.020Z,93649.22
2023-01-17T09:41:53.301Z,93656.25
2023-01-17T09:44:43.235Z,93646.75
2023-01-17T09:47:35.565Z,93604.22
2023-01-17T09:50:29.794Z,93571.97
2023-01-17T09:53:16.103Z,93603.47
2023-01-17T09:56:02.289Z,93575.63
2023-01-17T09:58:53.837Z,93618.28
2023-01-17T10:01:44.525Z,93637.53
2023-01-17T10:04:49.093Z,93639.06
2023-01-17T10:07:44.976Z,93652.16
2023-01-17T10:10:38.607Z,93649.53
2023-01-17T10:13:35.506Z,93644.34
2023-01-17T10:16:35.191Z,93622.75
2023-01-17T10:19:36.245Z,93633.44
2023-01-17T10:22:34.789Z,93625.63
2023-01-17T10:25:33.200Z,93623.81
2023-01-17T10:28:18.535Z,93630.81
2023-01-17T10:31:07.520Z,93634.72
2023-01-17T10:33:55.089Z,93624.06
2023-01-17T10:36:43.146Z,93632.88
2023-01-17T10:39:29.643Z,93619.38
2023-01-17T10:42:21.443Z,93628.22
2023-01-17T10:45:08.909Z,93640.19
2023-01-17T10:48:01.543Z,93658.91
2023-01-17T10:50:55.120Z,93611.00
2023-01-17T10:53:50.928Z,93645.34
2023-01-17T10:56:35.793Z,93622.97
2023-01-17T10:59:28.291Z,93655.00
2023-01-17T11:02:31.627Z,93627.66
2023-01-17T11:05:25.437Z,93638.88
2023-01-17T11:08:11.401Z,93629.75
2023-01-17T11:10:56.401Z,93634.91
2023-01-17T11:13:40.055Z,93639.09
2023-01-17T11:16:27.536Z,93625.00
2023-01-17T11:19:18.482Z,93627.09
2023-01-17T11:22:05.990Z,93615.66
2023-01-17T11:24:54.027Z,93610.69
2023-01-17T11:27:43.520Z,93598.34
2023-01-17T11:30:29.632Z,93596.41
2023-01-17T11:33:50.560Z,93563.88
2023-01-17T11:36:36.286Z,93563.78
2023-01-17T11:39:30.725Z,93579.25
2023-01-17T11:42:37.321Z,93585.06
2023-01-17T11:45:25.959Z,93581.47
2023-01-17T11:48:15.508Z,93563.47
2023-01-17T11:51:04.522Z,93534.31
2023-01-17T11:53:49.279Z,93556.38
2023-01-17T11:56:34.531Z,93553.31
2023-01-17T11:59:39.015Z,93513.47
2023-01-17T12:02:44.500Z,93503.19
2023-01-17T12:05:41.694Z,93505.91
2023-01-17T12:08:42.158Z,93490.47
2023-01-17T12:11:36.176Z,93509.75
2023-01-17T12:14:31.754Z,93495.06
2023-01-17T12:17:25.265Z,93497.75
2023-01-17T12:20:22.630Z,93492.28
2023-01-17T12:23:25.415Z,93465.28
2023-01-17T12:26:26.641Z,93473.16
2023-01-17T12:29:39.156Z,93491.94
2023-01-17T12:32:40.617Z,93471.25
2023-01-17T12:35:29.003Z,93488.88
2023-01-17T12:38:31.310Z,93483.09
2023-01-17T12:41:22.440Z,93500.22
2023-01-17T12:44:06.148Z,93469.31
2023-01-17T12:46:56.004Z,93497.59
2023-01-17T12:49:48.223Z,93490.56
2023-01-17T12:52:46.502Z,93457.56
2023-01-17T12:55:38.616Z,93452.84
2023-01-17T12:58:26.138Z,93433.78
2023-01-17T13:01:21.065Z,93464.88
2023-01-17T13:04:17.812Z,93446.69
2023-01-17T13:07:14.102Z,93467.53
2023-01-17T13:10:03.973Z,93495.41
2023-01-17T13:12:49.905Z,93470.50
2023-01-17T13:15:42.707Z,93483.59
2023-01-17T13:18:29.961Z,93469.72
2023-01-17T13:21:31.506Z,93462.72
2023-01-17T13:24:23.954Z,93486.28
2023-01-17T13:27:59.253Z,93471.44
2023-01-17T13:31:19.080Z,93474.28
2023-01-17T13:34:40.031Z,93501.34
2023-01-17T13:37:41.464Z,93490.44
2023-01-17T13:40:50.168Z,93487.25
2023-01-17T13:44:06.215Z,93489.94
2023-01-17T13:47:02.805Z,93498.97
2023-01-17T13:49:48.589Z,93497.25
2023-01-17T13:52:35.669Z,93476.81
2023-01-17T13:55:47.692Z,93496.00
2023-01-17T13:58:33.434Z,93489.00
2023-01-17T14:01:17.074Z,93531.03
2023-01-17T14:04:09.504Z,93525.31
2023-01-17T14:07:05.551Z,93515.56
2023-01-17T14:09:52.812Z,93499.84
2023-01-17T14:12:36.678Z,93528.41
2023-01-17T14:15:25.050Z,93517.13
2023-01-17T14:18:34.458Z,93532.66
2023-01-17T14:21:26.475Z,93500.69
2023-01-17T14:24:17.828Z,93483.28
2023-01-17T14:27:20.897Z,93504.16
2023-01-17T14:30:04.957Z,93500.22
2023-01-17T14:33:13.716Z,93527.63
2023-01-17T14:35:59.971Z,93539.16
2023-01-17T14:38:46.321Z,93507.09
2023-01-17T14:41:30.811Z,93515.50
2023-01-17T14:44:17.212Z,93449.56
2023-01-17T14:47:00.464Z,93495.50
2023-01-17T14:49:44.249Z,93505.38
2023-01-17T14:52:27.719Z,93501.03
2023-01-17T14:55:18.692Z,93514.00
2023-01-17T14:58:05.325Z,93507.16
2023-01-17T15:00:57.633Z,93553.53
2023-01-17T15:03:49.393Z,93518.28
2023-01-17T15:06:38.671Z,93533.94
2023-01-17T15:09:24.232Z,93506.44
2023-01-17T15:12:13.889Z,93514.25
2023-01-17T15:15:01.196Z,93543.91
2023-01-17T15:17:44.462Z,93513.72
2023-01-17T15:20:28.403Z,93545.69
2023-01-17T15:23:20.370Z,93536.03
2023-01-17T15:26:05.545Z,93511.13
2023-01-17T15:28:51.499Z,93535.03
2023-01-17T15:31:43.603Z,93525.41
2023-01-17T15:34:29.511Z,93561.97
2023-01-17T15:37:25.940Z,93541.69
2023-01-17T15:40:20.050Z,93525.53
2023-01-17T15:43:05.530Z,93542.66
2023-01-17T15:46:01.746Z,93523.94
2023-01-17T15:48:45.575Z,93512.53
2023-01-17T15:51:42.092Z,93509.34
2023-01-17T15:54:44.921Z,93516.91
2023-01-17T15:57:31.009Z,93515.66
2023-01-17T16:00:26.430Z,93512.28
2023-01-17T16:03:28.945Z,93526.22
2023-01-17T16:06:32.416Z,93525.44
2023-01-17T16:09:23.246Z,93522.31
2023-01-17T16:12:08.871Z,93521.53
2023-01-17T16:15:11.324Z,93539.22
2023-01-17T16:17:58.829Z,93533.69
2023-01-17T16:20:48.450Z,93532.13
2023-01-17T16:23:31.824Z,93521.75
2023-01-17T16:26:18.861Z,93521.75
2023-01-17T16:29:02.382Z,93509.03
2023-01-17T16:31:47.577Z,93515.38
2023-01-17T16:34:39.784Z,93526.47
2023-01-17T16:37:24.295Z,93518.69
2023-01-17T16:40:09.116Z,93514.56
2023-01-17T16:42:52.938Z,93506.91
2023-01-17T16:45:41.246Z,93497.84
2023-01-17T16:48:24.617Z,93501.47
2023-01-17T16:51:09.197Z,93486.44
2023-01-17T16:53:53.704Z,93489.13
2023-01-17T16:56:36.864Z,93485.41
2023-01-17T17:02:18.770Z,93499.94
2023-01-17T17:05:04.380Z,93512.72
2023-01-17T17:07:51.538Z,93492.75
2023-01-17T17:10:36.396Z,93483.41
2023-01-17T17:13:21.908Z,93478.78
2023-01-17T17:16:10.938Z,93486.69
2023-01-17T17:19:01.737Z,93485.91
2023-01-17T17:21:44.811Z,93469.09
2023-01-17T17:24:28.169Z,93459.81
2023-01-17T17:27:12.885Z,93456.97
2023-01-17T17:29:58.748Z,93437.81
2023-01-17T17:32:41.998Z,93439.38
2023-01-17T17:35:32.227Z,93432.13
2023-01-17T17:38:17.628Z,93437.84
2023-01-17T17:41:06.565Z,93423.00
2023-01-17T17:43:52.290Z,93432.38
2023-01-17T17:46:38.615Z,93428.50
2023-01-17T17:49:22.725Z,93413.97
2023-01-17T17:52:06.798Z,93402.53
2023-01-17T17:54:50.006Z,93393.69
2023-01-17T17:57:36.674Z,93394.19
2023-01-17T18:00:23.519Z,93371.31
2023-01-17T18:03:07.373Z,93387.16
2023-01-17T18:05:50.431Z,93373.56
2023-01-17T18:08:33.976Z,93360.41
2023-01-17T18:11:21.317Z,93390.03
2023-01-17T18:14:06.660Z,93365.66
2023-01-17T18:16:54.462Z,93383.84
2023-01-17T18:19:38.158Z,93385.91
2023-01-17T18:22:21.281Z,93366.69
2023-01-17T18:25:04.885Z,93367.22
2023-01-17T18:27:48.033Z,93353.66
2023-01-17T18:30:35.062Z,93358.88
2023-01-17T18:33:21.375Z,93386.69
2023-01-17T18:36:05.355Z,93376.31
2023-01-17T18:38:52.358Z,93368.25
2023-01-17T18:41:35.577Z,93376.56
2023-01-17T18:44:21.812Z,93373.44
2023-01-17T18:47:05.692Z,93395.75
2023-01-17T18:49:53.702Z,93365.13
2023-01-17T18:52:38.823Z,93350.06
2023-01-17T18:55:22.964Z,93356.00
2023-01-17T18:58:06.110Z,93370.31
2023-01-17T19:00:50.932Z,93372.88
2023-01-17T19:03:34.498Z,93386.59
2023-01-17T19:06:21.526Z,93386.81
2023-01-17T19:09:05.489Z,93374.84
2023-01-17T19:11:53.215Z,93372.81
2023-01-17T19:14:36.606Z,93367.06
2023-01-17T19:17:19.788Z,93376.91
2023-01-17T19:20:02.926Z,93364.66
2023-01-17T19:22:49.841Z,93359.16
2023-01-17T19:25:37.689Z,93366.47
2023-01-17T19:28:20.793Z,93353.47
2023-01-17T19:31:05.336Z,93346.22
2023-01-17T19:33:51.997Z,93376.81
2023-01-17T19:36:37.502Z,93369.66
2023-01-17T19:39:25.919Z,93339.59
2023-01-17T19:42:15.438Z,93343.56
2023-01-17T19:44:58.535Z,93347.72
2023-01-17T19:47:42.087Z,93344.81
2023-01-17T19:50:25.105Z,93368.81
2023-01-17T19:53:14.066Z,93356.31
2023-01-17T19:55:58.968Z,93349.84
2023-01-17T19:58:43.861Z,93353.66
2023-01-17T20:01:30.350Z,93343.97
2023-01-17T20:04:15.840Z,93327.63
2023-01-17T20:06:59.006Z,93333.28
2023-01-17T20:09:49.416Z,93343.75
2023-01-17T20:12:37.348Z,93345.66
2023-01-17T20:15:20.666Z,93324.81
2023-01-17T20:18:03.848Z,93319.09
2023-01-17T20:20:57.036Z,93322.13
2023-01-17T20:23:45.676Z,93325.25
2023-01-17T20:26:38.343Z,93341.13
2023-01-17T20:29:25.536Z,93370.03
2023-01-17T20:32:11.274Z,93344.47
2023-01-17T20:34:54.684Z,93356.19
2023-01-17T20:37:38.229Z,93318.47
2023-01-17T20:40:23.418Z,93317.44
2023-01-17T20:43:06.514Z,93338.75
2023-01-17T20:45:57.455Z,93337.09
2023-01-17T20:48:47.808Z,93346.88
2023-01-17T20:51:31.536Z,93345.50
2023-01-17T20:54:16.517Z,93342.44
2023-01-17T20:57:01.413Z,93331.38
2023-01-17T20:59:45.901Z,93321.38
2023-01-17T21:02:30.524Z,93307.66
2023-01-17T21:05:13.622Z,93325.56
2023-01-17T21:07:57.219Z,93321.81
2023-01-17T21:10:41.622Z,93314.50
2023-01-17T21:13:24.774Z,93309.84
2023-01-17T21:16:11.855Z,93301.75
2023-01-17T21:18:57.449Z,93282.63
2023-01-17T21:21:41.279Z,93293.59
2023-01-17T21:24:24.561Z,93302.47
2023-01-17T21:27:07.654Z,93284.09
2023-01-17T21:29:55.387Z,93306.44
2023-01-17T21:32:40.748Z,93281.88
2023-01-17T21:35:29.857Z,93301.75
2023-01-17T21:38:13.976Z,93294.44
2023-01-17T21:40:59.217Z,93324.06
2023-01-17T21:43:42.246Z,93298.25
2023-01-17T21:46:26.199Z,93305.03
2023-01-17T21:49:12.458Z,93308.34
2023-01-17T21:52:17.386Z,93303.69
2023-01-17T21:55:18.106Z,93304.47
2023-01-17T21:58:19.055Z,93289.69
2023-01-17T22:01:11.180Z,93308.19
2023-01-17T22:04:00.388Z,93297.03
2023-01-17T22:06:43.473Z,93262.47
2023-01-17T22:09:27.920Z,93317.41
2023-01-17T22:12:12.026Z,93305.97
2023-01-17T22:14:55.404Z,93296.78
2023-01-17T22:17:41.968Z,93278.97
2023-01-17T22:20:25.335Z,93296.72
2023-01-17T22:23:09.567Z,93310.69
2023-01-17T22:25:54.018Z,93322.84
2023-01-17T22:28:37.958Z,93301.72
2023-01-17T22:31:25.983Z,93293.81
2023-01-17T22:34:09.086Z,93302.19
2023-01-17T22:36:52.105Z,93295.16
2023-01-17T22:39:35.192Z,93301.66
2023-01-17T22:42:20.295Z,93305.06
2023-01-17T22:45:03.359Z,93304.69
2023-01-17T22:47:46.462Z,93301.66
2023-01-17T22:50:29.559Z,93286.53
2023-01-17T22:53:12.728Z,93285.22
2023-01-17T22:56:05.790Z,93300.09
2023-01-17T22:58:50.764Z,93306.28
2023-01-17T23:01:34.055Z,93283.88
2023-01-17T23:04:17.354Z,93290.69
2023-01-17T23:07:00.763Z,93284.03
2023-01-17T23:09:43.939Z,93287.09
2023-01-17T23:12:29.513Z,93278.88
2023-01-17T23:15:32.589Z,93270.97
2023-01-17T23:18:33.258Z,93294.53
2023-01-17T23:21:17.581Z,93282.56
2023-01-17T23:24:00.667Z,93282.44
2023-01-17T23:27:03.731Z,93272.13
2023-01-17T23:29:45.878Z,93261.16
2023-01-17T23:32:30.396Z,93264.13
2023-01-17T23:35:13.910Z,93256.47
2023-01-17T23:38:15.113Z,93271.34
2023-01-17T23:41:22.425Z,93232.38
2023-01-17T23:44:05.536Z,93257.47
2023-01-17T23:46:50.838Z,93254.38
2023-01-17T23:49:35.354Z,93265.25
2023-01-17T23:52:19.609Z,93248.50
2023-01-17T23:55:04.720Z,93254.38
2023-01-17T23:57:50.357Z,93253.25
